McKean County Weather on FaceBook
Current Metar reports for airports in our Region

Nearby METAR Reports

Metar reports are mainly used by pilots for information on what is happening at their destination during their pre-flight weather briefings and by meteorologists to assist in short term forecasts. A raw Metar is one of the most universal ways to communicate weather information in the world and are usually transmitted by airports, but some come from permanent sanctioned weather observatories.

Listed below are Metars from airports within 100 miles of our station here in Smethport Pa. The first one of course is the Bradford Regional Airport, then the Olean NY airport and so on. Each airport has it's own table to display it's data and at the bottom of the table is 'Raw' Metar for each airport. Most pilots and weather forecasters can look at the raw data and tell you what is up, but we use a script that handles all of the details for us.

KBFD - Bradford, Pennsylvania, USA
Distance from station: NW 7mi, 11km
Updated: Sat, 23-Mar-2019 11:53am EDT
Clear
Clear
 Wind from NW
Wind: NW 17 mph , 28 km/h, Gust: 23 mph , 37 km/h
Temperature: 28°F , -2°C
Wind Chill: 16°F , -9°C
Dew Point: 10°F , -12°C
Humidity: 47%
Barometer: 30.08 inHg , 1018.6 hPa
Clouds: Clear
Visibility: 10 miles , 16 km
2019/03/23 15:53 KBFD 231553Z AUTO 32015G20KT 10SM CLR M02/M12 A3008 RMK AO2 SLP211 T10221122
KOLE - Olean, New York, USA
Distance from station: NNE 37mi, 59km
Updated: Sat, 23-Mar-2019 12:35pm EDT
Clear
Clear
 Wind from WNW
Wind: WNW 12 mph , 19 km/h, Gust: 20 mph , 31 km/h
Temperature: 27°F , -3°C
Wind Chill: 16°F , -9°C
Dew Point: 10°F , -12°C
Humidity: 50%
Barometer: 30.08 inHg , 1018.6 hPa
Clouds: Clear
Visibility: 10 miles , 16 km
2019/03/23 16:35 KOLE 231635Z AUTO 30010G17KT 10SM CLR M03/M12 A3008 RMK AO2
 
KELZ - Wellsville, New York, USA
Distance from station: NE 40mi, 64km
Updated: Sat, 23-Mar-2019 11:56am EDT
Clear
Clear
 Wind from NW
Wind: NW 17 mph , 28 km/h, Gust: 26 mph , 43 km/h
Temperature: 27°F , -3°C
Wind Chill: 14°F , -10°C
Dew Point: 10°F , -12°C
Humidity: 50%
Barometer: 30.05 inHg , 1017.6 hPa
Clouds: Clear
Visibility: 10 miles , 16 km
2019/03/23 15:56 KELZ 231556Z AUTO 31015G23KT 10SM CLR M03/M12 A3005 RMK AO2 PK WND 31026/1510 SLP206 T10281117 $
KDUJ - Du Bois, Pennsylvania, USA
Distance from station: SSW 42mi, 68km
Updated: Sat, 23-Mar-2019 12:53pm EDT
Clear
Clear
 Wind from WNW
Wind: WNW 17 mph , 28 km/h, Gust: 25 mph , 41 km/h
Temperature: 36°F , 2°C
Wind Chill: 26°F , -3°C
Dew Point: 12°F , -11°C
Humidity: 38%
Barometer: 30.13 inHg , 1020.3 hPa
Clouds: Clear
Visibility: 10 miles , 16 km
2019/03/23 16:53 KDUJ 231653Z AUTO 30015G22KT 10SM CLR 02/M11 A3013 RMK AO2 PK WND 31026/1607
 
KJHW - Jamestown, New York, USA
Distance from station: NW 46mi, 75km
Updated: Sat, 23-Mar-2019 11:56am EDT
Clear
Clear
 Wind from WNW
Wind: WNW 10 mph , 17 km/h
Temperature: 28°F , -2°C
Wind Chill: 19°F , -7°C
Dew Point: 12°F , -11°C
Humidity: 51%
Barometer: 30.15 inHg , 1021 hPa
Clouds: Clear
Visibility: 7 miles , 11 km
2019/03/23 15:56 KJHW 231556Z AUTO 30009KT 7SM CLR M02/M11 A3015 RMK AO2 SLP237 T10171106 FZRANO
KFIG - Clearfield, Pennsylvania, USA
Distance from station: S 47mi, 75km
Updated: Sat, 23-Mar-2019 11:54am EDT
Clear
Clear
 Wind from W
Wind: W 16 mph , 26 km/h, Gust: 25 mph , 41 km/h
Temperature: 36°F , 2°C
Wind Chill: 26°F , -3°C
Dew Point: 12°F , -11°C
Humidity: 38%
Barometer: 30.11 inHg , 1019.6 hPa
Clouds: Clear
Visibility: 10 miles , 16 km
2019/03/23 15:54 KFIG 231554Z AUTO 28014G22KT 10SM CLR 02/M11 A3011 RMK AO2 SLP211 T00171111
 
KDKK - Dunkirk, New York, USA
Distance from station: NW 66mi, 106km
Updated: Sat, 23-Mar-2019 12:53pm EDT
Clear
Clear
 Wind from W
Wind: W 16 mph , 26 km/h, Gust: 23 mph , 37 km/h
Temperature: 30°F , -1°C
Wind Chill: 19°F , -7°C
Dew Point: 16°F , -9°C
Humidity: 55%
Barometer: 30.24 inHg , 1024 hPa
Clouds: Clear
Visibility: 10 miles , 16 km
2019/03/23 16:53 KDKK 231653Z AUTO 27014G20KT 10SM CLR M01/M09 A3024 RMK AO2 SLP248 T10111094
KUNV - State College, Pennsylvania, USA
Distance from station: SSE 71mi, 114km
Updated: Sat, 23-Mar-2019 12:53pm EDT
Clear
Clear
 Wind from WNW
Wind: WNW 17 mph , 28 km/h, Gust: 23 mph , 37 km/h
Temperature: 39°F , 4°C
Wind Chill: 30°F , -1°C
Dew Point: 12°F , -11°C
Humidity: 33%
Barometer: 30.10 inHg , 1019.3 hPa
Clouds: Clear
Visibility: 10 miles , 16 km
2019/03/23 16:53 KUNV 231653Z 29015G20KT 10SM SKC 04/M11 A3010
 
KFKL - Franklin, Pennsylvania, USA
Distance from station: WSW 72mi, 116km
Updated: Sat, 23-Mar-2019 11:56am EDT
Clear
Clear
 Wind from W
Wind: W 12 mph , 19 km/h
Temperature: 32°F , 0°C
Wind Chill: 23°F , -5°C
Dew Point: 19°F , -7°C
Humidity: 60%
Barometer: 30.20 inHg , 1022.7 hPa
Clouds: Clear
Visibility: 10 miles , 16 km
2019/03/23 15:56 KFKL 231556Z AUTO 28010KT 10SM CLR 00/M07 A3020 RMK AO2 SLP246 T00001072 FZRANO
KDSV - Dansville, New York, USA
Distance from station: NE 73mi, 117km
Updated: Sat, 23-Mar-2019 11:54am EDT
Clear
Clear
 Wind from NW
Wind: NW 14 mph , 22 km/h, Gust: 30 mph , 48 km/h
Temperature: 32°F , 0°C
Wind Chill: 22°F , -6°C
Dew Point: 9°F , -13°C
Humidity: 37%
Barometer: 30.13 inHg , 1020.3 hPa
Clouds: Clear
Visibility: 10 miles , 16 km
2019/03/23 15:54 KDSV 231554Z AUTO 31012G26KT 10SM CLR 00/M13 A3013 RMK AO2 PK WND 32026/1548 SLP219 T00001128
 
KIDI - Indiana/Stewart, Pennsylvania, USA
Distance from station: SSW 81mi, 130km
Updated: Sat, 23-Mar-2019 12:55pm EDT
Clear
Clear
 Wind from WNW
Wind: WNW 15 mph , 24 km/h
Temperature: 37°F , 3°C
Wind Chill: 28°F , -2°C
Dew Point: 18°F , -8°C
Humidity: 45%
Barometer: 30.21 inHg , 1023 hPa
Clouds: Clear
Visibility: 10 miles , 16 km
2019/03/23 16:55 KIDI 231655Z AUTO 30013KT 260V320 10SM CLR 03/M08 A3021 RMK A01
KBUF - Buffalo/Cheektow, New York, USA
Distance from station: N 84mi, 136km
Updated: Sat, 23-Mar-2019 11:54am EDT
Clear
Clear
 Wind from W
Wind: W 15 mph , 24 km/h, Gust: 21 mph , 33 km/h
Temperature: 28°F , -2°C
Wind Chill: 16°F , -9°C
Dew Point: 12°F , -11°C
Humidity: 51%
Barometer: 30.18 inHg , 1022 hPa
Clouds: Clear
Visibility: 10 miles , 16 km
2019/03/23 15:54 KBUF 231554Z 26013G18KT 10SM CLR M02/M11 A3018 RMK AO2 SLP230 T10221111
 
KGKJ - Meadville, Pennsylvania, USA
Distance from station: W 86mi, 138km
Updated: Sat, 23-Mar-2019 12:53pm EDT
Clear
Clear
 Wind from NW
Wind: NW 10 mph , 17 km/h, Gust: 17 mph , 28 km/h
Temperature: 34°F , 1°C
Wind Chill: 26°F , -3°C
Dew Point: 18°F , -8°C
Humidity: 51%
Barometer: 30.21 inHg , 1023 hPa
Clouds: Clear
Visibility: 10 miles , 16 km
2019/03/23 16:53 KGKJ 231653Z AUTO 32009G15KT 10SM CLR 01/M08 A3021 RMK AO2 SLP246 T00061078 TSNO
KERI - Erie, Pennsylvania, USA
Distance from station: WNW 87mi, 140km
Updated: Sat, 23-Mar-2019 12:51pm EDT
Few Clouds
Few Clouds
 Wind from W
Wind: W 13 mph , 20 km/h, Gust: 20 mph , 31 km/h
Temperature: 34°F , 1°C
Wind Chill: 25°F , -4°C
Dew Point: 21°F , -6°C
Humidity: 60%
Barometer: 30.27 inHg , 1025.1 hPa
Clouds: Few Clouds
Visibility: 10 miles , 16 km
Cloud details: Few Clouds 2300 ft
2019/03/23 16:51 KERI 231651Z 26011G17KT 10SM FEW023 01/M06 A3027 RMK AO2 SLP258 T00111061
 
KELM - Elmira, New York, USA
Distance from station: ENE 90mi, 145km
Updated: Sat, 23-Mar-2019 12:53pm EDT
Clear
Clear
 Wind from NNW
Wind: NNW 9 mph , 15 km/h, Gust: 22 mph , 35 km/h
Temperature: 36°F , 2°C
Wind Chill: 29°F , -2°C
Dew Point: 12°F , -11°C
Humidity: 38%
Barometer: 30.05 inHg , 1017.6 hPa
Clouds: Clear
Visibility: 10 miles , 16 km
2019/03/23 16:53 KELM 231653Z 33008G19KT 10SM CLR 02/M11 A3005 RMK AO2 SLP187 T002211
KIPT - Williamsport, Pennsylvania, USA
Distance from station: ESE 91mi, 146km
Updated: Sat, 23-Mar-2019 11:54am EDT
Clear
Clear
 Wind from NW
Wind: NW 17 mph , 28 km/h, Gust: 29 mph , 46 km/h
Temperature: 41°F , 5°C
Wind Chill: 33°F , 1°C
Dew Point: 7°F , -14°C
Humidity: 24%
Barometer: 30.04 inHg , 1017.3 hPa
Clouds: Clear
Visibility: 10 miles , 16 km
2019/03/23 15:54 KIPT 231554Z 31015G25KT 10SM CLR 05/M14 A3004 RMK AO2 PK WND 27027/1509 SLP176 T00501144
 
KBTP - Butler Co., Pennsylvania, USA
Distance from station: SW 98mi, 157km
Updated: Sat, 23-Mar-2019 11:56am EDT
Few Clouds
Few Clouds
 Wind from varies
Wind: varies 7 mph , 11 km/h, Gust: 21 mph , 33 km/h
Temperature: 36°F , 2°C
Wind Chill: 30°F , -1°C
Dew Point: 19°F , -7°C
Humidity: 52%
Barometer: 30.24 inHg , 1024 hPa
Clouds: Few Clouds
Visibility: 10 miles , 16 km
Cloud details: Few Clouds 3200 ft
2019/03/23 15:56 KBTP 231556Z AUTO VRB06G18KT 10SM FEW032 02/M07 A3024 RMK AO2 SLP259 T00171067 FZRANO
KAOO - Altoona, Pennsylvania, USA
Distance from station: S 99mi, 159km
Updated: Sat, 23-Mar-2019 12:53pm EDT
Clear
Clear
 Wind from WNW
Wind: WNW 21 mph , 33 km/h, Gust: 31 mph , 50 km/h
Temperature: 37°F , 3°C
Wind Chill: 26°F , -3°C
Dew Point: 16°F , -9°C
Humidity: 41%
Barometer: 30.13 inHg , 1020.3 hPa
Clouds: Clear
Visibility: 10 miles , 16 km
2019/03/23 16:53 KAOO 231653Z AUTO 30018G27KT 10SM CLR 03/M09 A3013 RMK AO2 PK WND 30028/1634 SLP216 T00331089
 
KPIT - Pittsburg, Pennsylvania, USA
Distance from station: SSW 126mi, 203km
Updated: Sat, 23-Mar-2019 12:51pm EDT
Clear
Clear
 Wind from NW
Wind: NW 8 mph , 13 km/h, Gust: 18 mph , 30 km/h
Temperature: 37°F , 3°C
Wind Chill: 31°F , -1°C
Dew Point: 19°F , -7°C
Humidity: 48%
Barometer: 30.23 inHg , 1023.7 hPa
Clouds: Clear
Visibility: 10 miles , 16 km
2019/03/23 16:51 KPIT 231651Z 31007G16KT 10SM CLR 03/M07 A3023 RMK AO2 SLP258 T00331072 $
KCLE - Cleveland, Ohio, USA
Distance from station: WSW 160mi, 258km
Updated: Sat, 23-Mar-2019 12:51pm EDT
Clear
Clear
 Wind from NW
Wind: NW 7 mph , 11 km/h
Temperature: 37°F , 3°C
Wind Chill: 32°F , 0°C
Dew Point: 18°F , -8°C
Humidity: 45%
Barometer: 30.32 inHg , 1026.8 hPa
Clouds: Clear
Visibility: 10 miles , 16 km
2019/03/23 16:51 KCLE 231651Z 31006KT 10SM CLR 03/M08 A3032 RMK AO2 SLP274 T00281078